createdAt,value
2018-12-07T00:01:21.261Z,100579.00
2018-12-07T00:03:49.406Z,100562.00
2018-12-07T00:06:17.475Z,100558.00
2018-12-07T00:08:45.538Z,100551.00
2018-12-07T00:11:13.596Z,100548.00
2018-12-07T00:13:41.688Z,100549.00
2018-12-07T00:16:09.786Z,100550.00
2018-12-07T00:18:37.813Z,100543.00
2018-12-07T00:21:05.942Z,100542.00
2018-12-07T00:23:34.032Z,100540.00
2018-12-07T00:26:02.061Z,100536.00
2018-12-07T00:28:30.178Z,100526.00
2018-12-07T00:30:58.359Z,100535.00
2018-12-07T00:33:26.460Z,100538.00
2018-12-07T00:35:54.705Z,100535.00
2018-12-07T00:38:22.814Z,100538.00
2018-12-07T00:40:50.868Z,100532.00
2018-12-07T00:43:19.041Z,100531.00
2018-12-07T00:45:47.077Z,100519.00
2018-12-07T00:48:15.126Z,100524.00
2018-12-07T00:50:43.179Z,100518.00
2018-12-07T00:53:11.246Z,100512.00
2018-12-07T00:55:40.224Z,100506.00
2018-12-07T00:58:08.527Z,100503.00
2018-12-07T01:00:36.584Z,100507.00
2018-12-07T01:03:04.761Z,100505.00
2018-12-07T01:05:32.940Z,100508.00
2018-12-07T01:08:01.208Z,100501.00
2018-12-07T01:10:29.190Z,100500.00
2018-12-07T01:12:57.318Z,100500.00
2018-12-07T01:15:25.634Z,100490.00
2018-12-07T01:17:53.881Z,100503.00
2018-12-07T01:20:22.074Z,100491.00
2018-12-07T01:22:50.274Z,100494.00
2018-12-07T01:25:18.367Z,100482.00
2018-12-07T01:27:46.479Z,100485.00
2018-12-07T01:30:14.645Z,100488.00
2018-12-07T01:32:43.087Z,100479.00
2018-12-07T01:35:11.209Z,100471.00
2018-12-07T01:37:39.381Z,100461.00
2018-12-07T01:40:07.508Z,100481.00
2018-12-07T01:42:35.617Z,100476.00
2018-12-07T01:45:04.428Z,100477.00
2018-12-07T01:47:35.279Z,100469.00
2018-12-07T01:50:03.835Z,100469.00
2018-12-07T01:52:31.936Z,100468.00
2018-12-07T01:54:59.999Z,100474.00
2018-12-07T01:57:28.111Z,100465.00
2018-12-07T01:59:56.123Z,100470.00
2018-12-07T02:02:24.188Z,100462.00
2018-12-07T02:04:52.572Z,100458.00
2018-12-07T02:07:32.108Z,100452.00
2018-12-07T02:10:00.375Z,100458.00
2018-12-07T02:12:28.630Z,100443.00
2018-12-07T02:14:56.846Z,100450.00
2018-12-07T02:17:25.040Z,100444.00
2018-12-07T02:19:53.161Z,100428.00
2018-12-07T02:22:21.379Z,100420.00
2018-12-07T02:24:49.436Z,100411.00
2018-12-07T02:27:17.527Z,100415.00
2018-12-07T02:29:45.660Z,100410.00
2018-12-07T02:32:13.673Z,100417.00
2018-12-07T02:34:42.327Z,100411.00
2018-12-07T02:37:10.691Z,100414.00
2018-12-07T02:39:38.745Z,100412.00
2018-12-07T02:42:06.901Z,100414.00
2018-12-07T02:44:35.046Z,100407.00
2018-12-07T02:47:03.104Z,100397.00
2018-12-07T02:49:31.163Z,100402.00
2018-12-07T02:51:59.240Z,100405.00
2018-12-07T02:54:27.290Z,100403.00
2018-12-07T02:56:55.341Z,100401.00
2018-12-07T02:59:23.359Z,100405.00
2018-12-07T03:01:51.373Z,100403.00
2018-12-07T03:04:19.500Z,100397.00
2018-12-07T03:06:47.563Z,100382.00
2018-12-07T03:09:15.700Z,100393.00
2018-12-07T03:11:43.900Z,100384.00
2018-12-07T03:14:12.171Z,100385.00
2018-12-07T03:16:40.695Z,100383.00
2018-12-07T03:19:08.835Z,100377.00
2018-12-07T03:21:36.918Z,100372.00
2018-12-07T03:24:04.933Z,100359.00
2018-12-07T03:26:33.247Z,100355.00
2018-12-07T03:29:01.333Z,100367.00
2018-12-07T03:31:29.659Z,100365.00
2018-12-07T03:33:57.871Z,100352.00
2018-12-07T03:36:26.174Z,100357.00
2018-12-07T03:38:54.456Z,100353.00
2018-12-07T03:41:22.660Z,100356.00
2018-12-07T03:43:50.734Z,100347.00
2018-12-07T03:46:19.110Z,100344.00
2018-12-07T03:48:47.126Z,100352.00
2018-12-07T03:51:15.250Z,100356.00
2018-12-07T03:53:43.388Z,100344.00
2018-12-07T03:56:11.409Z,100356.00
2018-12-07T03:58:39.439Z,100357.00
2018-12-07T04:01:07.582Z,100346.00
2018-12-07T04:03:35.666Z,100342.00
2018-12-07T04:06:03.644Z,100342.00
2018-12-07T04:08:31.636Z,100339.00
2018-12-07T04:10:59.686Z,100335.00
2018-12-07T04:13:28.125Z,100340.00
2018-12-07T04:15:56.163Z,100336.00
2018-12-07T04:18:24.204Z,100335.00
2018-12-07T04:20:52.259Z,100338.00
2018-12-07T04:23:20.285Z,100322.00
2018-12-07T04:25:48.400Z,100333.00
2018-12-07T04:28:16.491Z,100324.00
2018-12-07T04:30:44.792Z,100325.00
2018-12-07T04:33:12.812Z,100311.00
2018-12-07T04:35:40.953Z,100311.00
2018-12-07T04:38:09.100Z,100310.00
2018-12-07T04:40:37.136Z,100307.00
2018-12-07T04:43:05.207Z,100310.00
2018-12-07T04:45:33.488Z,100307.00
2018-12-07T04:48:01.543Z,100302.00
2018-12-07T04:50:29.705Z,100305.00
2018-12-07T04:52:57.875Z,100308.00
2018-12-07T04:55:25.892Z,100298.00
2018-12-07T04:57:53.978Z,100292.00
2018-12-07T05:00:22.057Z,100306.00
2018-12-07T05:02:50.090Z,100301.00
2018-12-07T05:05:18.200Z,100295.00
2018-12-07T05:07:46.297Z,100299.00
2018-12-07T05:10:14.588Z,100296.00
2018-12-07T05:12:42.789Z,100286.00
2018-12-07T05:15:10.898Z,100296.00
2018-12-07T05:17:39.031Z,100288.00
2018-12-07T05:20:07.693Z,100283.00
2018-12-07T05:22:35.894Z,100275.00
2018-12-07T05:25:04.559Z,100283.00
2018-12-07T05:27:32.598Z,100279.00
2018-12-07T05:30:00.588Z,100272.00
2018-12-07T05:32:28.717Z,100273.00
2018-12-07T05:34:56.758Z,100278.00
2018-12-07T05:37:24.763Z,100267.00
2018-12-07T05:39:52.759Z,100269.00
2018-12-07T05:42:20.776Z,100275.00
2018-12-07T05:44:48.792Z,100276.00
2018-12-07T05:47:16.842Z,100277.00
2018-12-07T05:49:44.819Z,100259.00
2018-12-07T05:52:12.811Z,100262.00
2018-12-07T05:54:40.856Z,100250.00
2018-12-07T05:57:09.043Z,100248.00
2018-12-07T05:59:37.003Z,100254.00
2018-12-07T06:02:05.227Z,100246.00
2018-12-07T06:04:33.287Z,100246.00
2018-12-07T06:07:01.335Z,100246.00
2018-12-07T06:09:29.521Z,100254.00
2018-12-07T06:11:57.692Z,100248.00
2018-12-07T06:14:25.820Z,100248.00
2018-12-07T06:16:53.890Z,100254.00
2018-12-07T06:19:22.042Z,100246.00
2018-12-07T06:21:50.580Z,100245.00
2018-12-07T06:24:18.802Z,100250.00
2018-12-07T06:26:46.842Z,100249.00
2018-12-07T06:29:14.970Z,100240.00
2018-12-07T06:31:43.166Z,100226.00
2018-12-07T06:34:11.282Z,100236.00
2018-12-07T06:36:39.386Z,100226.00
2018-12-07T06:39:09.999Z,100233.00
2018-12-07T06:41:38.100Z,100235.00
2018-12-07T06:44:06.256Z,100240.00
2018-12-07T06:46:34.502Z,100229.00
2018-12-07T06:49:12.278Z,100232.00
2018-12-07T06:51:43.059Z,100238.00
2018-12-07T06:54:11.163Z,100233.00
2018-12-07T06:56:39.406Z,100223.00
2018-12-07T06:59:07.437Z,100228.00
2018-12-07T07:01:35.680Z,100226.00
2018-12-07T07:04:04.023Z,100233.00
2018-12-07T07:06:32.101Z,100233.00
2018-12-07T07:09:00.206Z,100241.00
2018-12-07T07:11:28.281Z,100237.00
2018-12-07T07:13:56.351Z,100228.00
2018-12-07T07:16:24.390Z,100237.00
2018-12-07T07:18:52.511Z,100234.00
2018-12-07T07:21:20.972Z,100239.00
2018-12-07T07:23:49.070Z,100246.00
2018-12-07T07:26:17.392Z,100231.00
2018-12-07T07:28:45.483Z,100213.00
2018-12-07T07:31:13.677Z,100229.00
2018-12-07T07:33:41.943Z,100210.00
2018-12-07T07:36:10.020Z,100206.00
2018-12-07T07:38:38.184Z,100207.00
2018-12-07T07:41:06.443Z,100210.00
2018-12-07T07:43:34.615Z,100210.00
2018-12-07T07:46:02.830Z,100198.00
2018-12-07T07:48:31.001Z,100200.00
2018-12-07T07:50:59.058Z,100190.00
2018-12-07T07:53:27.107Z,100182.00
2018-12-07T07:55:55.297Z,100180.00
2018-12-07T07:58:23.389Z,100155.00
2018-12-07T08:00:51.441Z,100170.00
2018-12-07T08:03:19.491Z,100086.00
2018-12-07T08:05:47.704Z,100160.00
2018-12-07T08:08:15.794Z,100164.00
2018-12-07T08:10:43.857Z,100150.00
2018-12-07T08:13:11.959Z,100148.00
2018-12-07T08:15:40.033Z,100155.00
2018-12-07T08:18:08.078Z,100146.00
2018-12-07T08:20:36.312Z,100135.00
2018-12-07T08:23:04.502Z,100135.00
2018-12-07T08:25:33.247Z,100142.00
2018-12-07T08:28:01.309Z,100118.00
2018-12-07T08:30:29.375Z,100129.00
2018-12-07T08:32:57.494Z,100130.00
2018-12-07T08:35:25.751Z,100120.00
2018-12-07T08:37:53.873Z,100114.00
2018-12-07T08:40:22.008Z,100123.00
2018-12-07T08:42:50.171Z,100130.00
2018-12-07T08:45:19.145Z,100118.00
2018-12-07T08:47:47.267Z,100112.00
2018-12-07T08:50:15.442Z,100111.00
2018-12-07T08:52:43.574Z,100109.00
2018-12-07T08:55:11.801Z,100098.00
2018-12-07T08:57:39.863Z,100091.00
2018-12-07T09:00:09.910Z,100085.00
2018-12-07T09:02:38.038Z,100077.00
2018-12-07T09:05:06.679Z,100090.00
2018-12-07T09:07:34.896Z,100060.00
2018-12-07T09:10:03.924Z,100077.00
2018-12-07T09:12:32.675Z,100076.00
2018-12-07T09:15:00.811Z,100079.00
2018-12-07T09:17:28.882Z,100070.00
2018-12-07T09:19:57.021Z,100040.00
2018-12-07T09:22:25.108Z,100063.00
2018-12-07T09:24:53.323Z,100055.00
2018-12-07T09:27:21.723Z,100055.00
2018-12-07T09:29:49.861Z,100048.00
2018-12-07T09:32:17.965Z,100045.00
2018-12-07T09:34:46.169Z,100043.00
2018-12-07T09:37:14.371Z,100038.00
2018-12-07T09:39:42.525Z,100035.00
2018-12-07T09:42:10.631Z,100046.00
2018-12-07T09:44:38.740Z,100034.00
2018-12-07T09:47:07.029Z,100028.00
2018-12-07T09:49:35.215Z,100030.00
2018-12-07T09:52:03.379Z,100025.00
2018-12-07T09:54:31.495Z,100019.00
2018-12-07T09:56:59.589Z,100022.00
2018-12-07T09:59:27.883Z,100019.00
2018-12-07T10:01:56.034Z,100020.00
2018-12-07T10:04:24.373Z,100003.00
2018-12-07T10:06:52.494Z,100000.00
2018-12-07T10:09:20.786Z,99999.00
2018-12-07T10:11:48.908Z,99985.00
2018-12-07T10:14:17.048Z,99981.00
2018-12-07T10:16:45.173Z,99976.00
2018-12-07T10:19:13.250Z,99983.00
2018-12-07T10:21:41.348Z,99972.00
2018-12-07T10:24:09.487Z,99969.00
2018-12-07T10:26:37.711Z,99965.00
2018-12-07T10:29:05.770Z,99947.00
2018-12-07T10:31:33.877Z,99943.00
2018-12-07T10:34:02.002Z,99950.00
2018-12-07T10:36:30.225Z,99949.00
2018-12-07T10:38:58.362Z,99936.00
2018-12-07T10:41:26.735Z,99923.00
2018-12-07T10:43:54.901Z,99939.00
2018-12-07T10:46:23.179Z,99938.00
2018-12-07T10:48:51.244Z,99901.00
2018-12-07T10:51:19.350Z,99933.00
2018-12-07T10:53:47.483Z,99927.00
2018-12-07T10:56:15.687Z,99920.00
2018-12-07T10:58:43.924Z,99913.00
2018-12-07T11:01:17.655Z,99923.00
2018-12-07T11:03:51.603Z,99912.00
2018-12-07T11:06:25.393Z,99898.00
2018-12-07T11:09:59.662Z,99888.00
2018-12-07T11:12:33.455Z,99893.00
2018-12-07T11:15:07.243Z,99888.00
2018-12-07T11:17:41.425Z,99876.00
2018-12-07T11:20:15.172Z,99880.00
2018-12-07T11:22:48.978Z,99884.00
2018-12-07T11:25:22.704Z,99887.00
2018-12-07T11:28:59.642Z,99863.00
2018-12-07T11:31:33.503Z,99849.00
2018-12-07T11:34:06.285Z,99852.00
2018-12-07T11:36:34.450Z,99838.00
2018-12-07T11:39:04.186Z,99850.00
2018-12-07T11:41:32.308Z,99810.00
2018-12-07T11:44:00.431Z,99818.00
2018-12-07T11:46:28.658Z,99802.00
2018-12-07T11:48:56.813Z,99797.00
2018-12-07T11:51:24.894Z,99792.00
2018-12-07T11:53:53.103Z,99783.00
2018-12-07T11:56:21.365Z,99781.00
2018-12-07T11:58:49.445Z,99773.00
2018-12-07T12:01:17.601Z,99761.00
2018-12-07T12:03:45.645Z,99758.00
2018-12-07T12:06:13.732Z,99773.00
2018-12-07T12:08:41.735Z,99757.00
2018-12-07T12:11:09.757Z,99745.00
2018-12-07T12:13:37.924Z,99716.00
2018-12-07T12:16:06.227Z,99713.00
2018-12-07T12:18:34.444Z,99727.00
2018-12-07T12:21:02.763Z,99717.00
2018-12-07T12:23:30.891Z,99729.00
2018-12-07T12:25:59.043Z,99713.00
2018-12-07T12:28:27.127Z,99700.00
2018-12-07T12:30:55.273Z,99699.00
2018-12-07T12:33:23.444Z,99701.00
2018-12-07T12:35:51.492Z,99692.00
2018-12-07T12:38:19.690Z,99676.00
2018-12-07T12:40:47.830Z,99682.00
2018-12-07T12:43:15.952Z,99695.00
2018-12-07T12:45:44.103Z,99678.00
2018-12-07T12:48:12.307Z,99666.00
2018-12-07T12:50:40.685Z,99672.00
2018-12-07T12:53:08.742Z,99656.00
2018-12-07T12:55:36.851Z,99651.00
2018-12-07T12:58:04.969Z,99653.00
2018-12-07T13:00:33.008Z,99648.00
2018-12-07T13:03:01.142Z,99649.00
2018-12-07T13:05:29.356Z,99637.00
2018-12-07T13:07:57.582Z,99629.00
2018-12-07T13:10:25.584Z,99616.00
2018-12-07T13:12:53.720Z,99614.00
2018-12-07T13:15:21.857Z,99617.00
2018-12-07T13:17:49.944Z,99589.00
2018-12-07T13:20:18.076Z,99607.00
2018-12-07T13:22:46.237Z,99586.00
2018-12-07T13:25:14.364Z,99591.00
2018-12-07T13:27:42.479Z,99576.00
2018-12-07T13:30:10.620Z,99561.00
2018-12-07T13:32:38.817Z,99562.00
2018-12-07T13:35:07.051Z,99544.00
2018-12-07T13:37:35.286Z,99557.00
2018-12-07T13:40:04.606Z,99555.00
2018-12-07T13:42:32.889Z,99568.00
2018-12-07T13:45:01.336Z,99528.00
2018-12-07T13:47:29.819Z,99524.00
2018-12-07T13:50:03.631Z,99517.00
2018-12-07T13:52:31.998Z,99521.00
2018-12-07T13:55:00.626Z,99519.00
2018-12-07T13:57:28.922Z,99520.00
2018-12-07T13:59:57.151Z,99489.00
2018-12-07T14:02:25.363Z,99488.00
2018-12-07T14:04:53.538Z,99486.00
2018-12-07T14:07:21.765Z,99487.00
2018-12-07T14:09:50.599Z,99474.00
2018-12-07T14:12:19.167Z,99488.00
2018-12-07T14:14:47.751Z,99468.00
2018-12-07T14:17:15.875Z,99475.00
2018-12-07T14:19:44.195Z,99479.00
2018-12-07T14:22:12.504Z,99474.00
2018-12-07T14:24:40.822Z,99450.00
2018-12-07T14:27:09.223Z,99446.00
2018-12-07T14:29:37.555Z,99436.00
2018-12-07T14:32:06.128Z,99452.00
2018-12-07T14:34:34.742Z,99453.00
2018-12-07T14:37:03.085Z,99443.00
2018-12-07T14:39:31.375Z,99433.00
2018-12-07T14:41:59.735Z,99420.00
2018-12-07T14:44:28.076Z,99414.00
2018-12-07T14:46:56.392Z,99425.00
2018-12-07T14:49:24.663Z,99417.00
2018-12-07T14:51:52.857Z,99427.00
2018-12-07T14:54:21.104Z,99415.00
2018-12-07T14:56:49.605Z,99400.00
2018-12-07T14:59:17.971Z,99405.00
2018-12-07T15:01:46.235Z,99417.00
2018-12-07T15:04:14.755Z,99412.00
2018-12-07T15:06:43.291Z,99414.00
2018-12-07T15:09:11.752Z,99408.00
2018-12-07T15:11:40.157Z,99405.00
2018-12-07T15:14:08.546Z,99396.00
2018-12-07T15:16:37.084Z,99396.00
2018-12-07T15:19:05.287Z,99397.00
2018-12-07T15:21:33.537Z,99402.00
2018-12-07T15:24:01.747Z,99398.00
2018-12-07T15:26:30.077Z,99390.00
2018-12-07T15:28:58.370Z,99393.00
2018-12-07T15:31:26.540Z,99388.00
2018-12-07T15:33:54.864Z,99373.00
2018-12-07T15:36:23.103Z,99385.00
2018-12-07T15:38:51.507Z,99377.00
2018-12-07T15:41:19.817Z,99361.00
2018-12-07T15:43:48.217Z,99354.00
2018-12-07T15:46:16.485Z,99364.00
2018-12-07T15:48:44.833Z,99355.00
2018-12-07T15:51:13.145Z,99349.00
2018-12-07T15:53:41.499Z,99348.00
2018-12-07T15:56:09.770Z,99346.00
2018-12-07T15:58:37.978Z,99345.00
2018-12-07T16:01:06.332Z,99338.00
2018-12-07T16:03:34.445Z,99331.00
2018-12-07T16:06:03.047Z,99312.00
2018-12-07T16:08:31.418Z,99306.00
2018-12-07T16:10:59.572Z,99306.00
2018-12-07T16:13:28.291Z,99307.00
2018-12-07T16:15:56.729Z,99295.00
2018-12-07T16:18:24.889Z,99294.00
2018-12-07T16:20:53.324Z,99289.00
2018-12-07T16:23:21.680Z,99284.00
2018-12-07T16:25:50.248Z,99289.00
2018-12-07T16:28:18.619Z,99259.00
2018-12-07T16:30:47.192Z,99258.00
2018-12-07T16:33:15.443Z,99247.00
2018-12-07T16:35:43.936Z,99247.00
2018-12-07T16:38:12.270Z,99246.00
2018-12-07T16:40:40.836Z,99225.00
2018-12-07T16:43:09.088Z,99240.00
2018-12-07T16:45:37.347Z,99218.00
2018-12-07T16:48:05.750Z,99223.00
2018-12-07T16:50:36.028Z,99233.00
2018-12-07T16:53:04.527Z,99232.00
2018-12-07T16:55:32.978Z,99225.00
2018-12-07T16:58:01.234Z,99214.00
2018-12-07T17:00:29.626Z,99182.00
2018-12-07T17:02:58.340Z,99196.00
2018-12-07T17:05:26.716Z,99184.00
2018-12-07T17:07:55.010Z,99184.00
2018-12-07T17:10:23.352Z,99191.00
2018-12-07T17:12:51.686Z,99182.00
2018-12-07T17:15:20.082Z,99184.00
2018-12-07T17:17:48.415Z,99172.00
2018-12-07T17:20:16.961Z,99173.00
2018-12-07T17:22:45.313Z,99172.00
2018-12-07T17:25:13.766Z,99152.00
2018-12-07T17:27:43.705Z,99044.00
2018-12-07T17:30:12.055Z,99155.00
2018-12-07T17:32:40.313Z,99142.00
2018-12-07T17:35:08.606Z,99145.00
2018-12-07T17:37:37.010Z,99142.00
2018-12-07T17:40:06.513Z,99134.00
2018-12-07T17:42:34.886Z,99134.00
2018-12-07T17:45:03.316Z,99126.00
2018-12-07T17:47:31.600Z,99127.00
2018-12-07T17:50:00.332Z,99128.00
2018-12-07T17:52:28.686Z,99125.00
2018-12-07T17:54:56.994Z,99122.00
2018-12-07T17:57:25.184Z,99111.00
2018-12-07T17:59:53.470Z,99119.00
2018-12-07T18:02:21.851Z,99104.00
2018-12-07T18:04:50.092Z,99098.00
2018-12-07T18:07:18.509Z,99103.00
2018-12-07T18:09:46.999Z,99100.00
2018-12-07T18:12:15.334Z,99091.00
2018-12-07T18:14:43.699Z,99088.00
2018-12-07T18:17:12.196Z,99100.00
2018-12-07T18:19:40.471Z,99080.00
2018-12-07T18:22:09.069Z,99070.00
2018-12-07T18:24:37.809Z,99077.00
2018-12-07T18:27:06.348Z,99064.00
2018-12-07T18:29:34.877Z,99060.00
2018-12-07T18:34:40.920Z,99044.00
2018-12-07T18:37:09.445Z,99057.00
2018-12-07T18:39:38.721Z,99039.00
2018-12-07T18:42:07.282Z,99037.00
2018-12-07T18:44:35.805Z,99034.00
2018-12-07T18:47:04.344Z,99027.00
2018-12-07T18:49:32.812Z,99025.00
2018-12-07T18:52:01.378Z,99015.00
2018-12-07T18:54:29.871Z,99007.00
2018-12-07T18:56:58.259Z,99007.00
2018-12-07T18:59:26.825Z,99002.00
2018-12-07T19:01:55.198Z,98997.00
2018-12-07T19:04:23.718Z,98997.00
2018-12-07T19:06:52.378Z,98986.00
2018-12-07T19:09:20.902Z,98984.00
2018-12-07T19:11:49.402Z,98993.00
2018-12-07T19:14:17.967Z,99008.00
2018-12-07T19:16:46.391Z,99001.00
2018-12-07T19:19:15.185Z,98991.00
2018-12-07T19:21:43.779Z,98989.00
2018-12-07T19:24:12.503Z,98990.00
2018-12-07T19:26:41.166Z,98981.00
2018-12-07T19:29:10.472Z,99003.00
2018-12-07T19:31:39.089Z,98995.00
2018-12-07T19:34:07.769Z,99000.00
2018-12-07T19:36:38.023Z,98992.00
2018-12-07T19:39:09.140Z,98991.00
2018-12-07T19:41:38.127Z,99004.00
2018-12-07T19:44:06.773Z,99031.00
2018-12-07T19:46:35.568Z,99051.00
2018-12-07T19:49:04.410Z,99031.00
2018-12-07T19:51:32.907Z,99071.00
2018-12-07T19:54:01.710Z,99056.00
2018-12-07T19:56:30.354Z,99061.00
2018-12-07T19:58:59.115Z,99095.00
2018-12-07T20:01:27.813Z,99113.00
2018-12-07T20:03:56.349Z,99119.00
2018-12-07T20:06:24.809Z,99116.00
2018-12-07T20:08:53.089Z,99133.00
2018-12-07T20:11:21.552Z,99149.00
2018-12-07T20:13:50.520Z,99171.00
2018-12-07T20:16:19.422Z,99184.00
2018-12-07T20:18:48.344Z,99183.00
2018-12-07T20:21:16.638Z,99197.00
2018-12-07T20:23:45.123Z,99202.00
2018-12-07T20:26:13.751Z,99134.00
2018-12-07T20:28:42.126Z,99235.00
2018-12-07T20:31:10.430Z,99232.00
2018-12-07T20:33:39.011Z,99246.00
2018-12-07T20:36:07.428Z,99240.00
2018-12-07T20:38:35.887Z,99243.00
2018-12-07T20:41:04.269Z,99243.00
2018-12-07T20:43:32.479Z,99267.00
2018-12-07T20:46:01.959Z,99281.00
2018-12-07T20:48:31.011Z,99317.00
2018-12-07T20:50:59.415Z,99337.00
2018-12-07T20:53:28.163Z,99359.00
2018-12-07T20:55:56.888Z,99353.00
2018-12-07T20:58:25.513Z,99339.00
2018-12-07T21:00:59.266Z,99347.00
2018-12-07T21:04:33.635Z,99365.00
2018-12-07T21:08:10.799Z,99371.00
2018-12-07T21:11:00.306Z,99375.00
2018-12-07T21:14:37.739Z,99381.00
2018-12-07T21:17:15.880Z,99389.00
2018-12-07T21:19:58.038Z,99399.00
2018-12-07T21:22:26.502Z,99419.00
2018-12-07T21:24:54.856Z,99427.00
2018-12-07T21:27:23.475Z,99442.00
2018-12-07T21:31:02.851Z,99453.00
2018-12-07T21:34:14.082Z,99463.00
2018-12-07T21:36:45.136Z,99473.00
2018-12-07T21:39:36.701Z,99490.00
2018-12-07T21:42:05.147Z,99491.00
2018-12-07T21:44:33.578Z,99485.00
2018-12-07T21:47:02.471Z,99501.00
2018-12-07T21:49:37.259Z,99495.00
2018-12-07T21:52:31.021Z,99501.00
2018-12-07T21:54:59.641Z,99515.00
2018-12-07T21:57:27.878Z,99532.00
2018-12-07T21:59:56.349Z,99526.00
2018-12-07T22:02:24.716Z,99532.00
2018-12-07T22:04:53.143Z,99541.00
2018-12-07T22:07:21.612Z,99550.00
2018-12-07T22:09:50.070Z,99552.00
2018-12-07T22:12:18.566Z,99562.00
2018-12-07T22:14:47.648Z,99553.00
2018-12-07T22:17:15.965Z,99572.00
2018-12-07T22:19:44.376Z,99578.00
2018-12-07T22:22:12.978Z,99585.00
2018-12-07T22:24:41.656Z,99592.00
2018-12-07T22:27:09.898Z,99589.00
2018-12-07T22:29:38.236Z,99595.00
2018-12-07T22:32:06.968Z,99608.00
2018-12-07T22:34:36.077Z,99605.00
2018-12-07T22:37:04.793Z,99613.00
2018-12-07T22:39:33.255Z,99616.00
2018-12-07T22:42:01.676Z,99619.00
2018-12-07T22:44:30.097Z,99616.00
2018-12-07T22:46:58.483Z,99621.00
2018-12-07T22:49:26.713Z,99618.00
2018-12-07T22:51:55.855Z,99613.00
2018-12-07T22:54:24.170Z,99613.00
2018-12-07T22:56:52.565Z,99632.00
2018-12-07T22:59:20.739Z,99615.00
2018-12-07T23:01:49.315Z,99611.00
2018-12-07T23:04:17.543Z,99621.00
2018-12-07T23:06:46.299Z,99627.00
2018-12-07T23:09:14.680Z,99639.00
2018-12-07T23:11:42.868Z,99644.00
2018-12-07T23:14:11.066Z,99645.00
2018-12-07T23:16:39.461Z,99642.00
2018-12-07T23:19:07.664Z,99646.00
2018-12-07T23:21:36.583Z,99648.00
2018-12-07T23:24:05.018Z,99653.00
2018-12-07T23:26:33.369Z,99629.00
2018-12-07T23:29:01.545Z,99655.00
2018-12-07T23:31:29.710Z,99656.00
2018-12-07T23:33:57.978Z,99653.00
2018-12-07T23:36:26.421Z,99646.00
2018-12-07T23:38:55.051Z,99649.00
2018-12-07T23:41:23.258Z,99648.00
2018-12-07T23:43:51.529Z,99647.00
2018-12-07T23:46:19.761Z,99651.00
2018-12-07T23:48:47.885Z,99650.00
2018-12-07T23:51:16.081Z,99663.00
2018-12-07T23:53:44.282Z,99661.00
2018-12-07T23:56:12.466Z,99655.00
2018-12-07T23:58:40.618Z,99676.00
